createdAt,value
2023-01-25T00:00:07.877Z,101740.19
2023-01-25T00:02:35.604Z,101733.53
2023-01-25T00:05:03.248Z,101739.03
2023-01-25T00:07:30.762Z,101738.13
2023-01-25T00:09:58.341Z,101727.34
2023-01-25T00:12:27.245Z,101719.56
2023-01-25T00:14:54.756Z,101727.19
2023-01-25T00:17:22.337Z,101717.38
2023-01-25T00:19:49.958Z,101719.03
2023-01-25T00:22:17.532Z,101712.94
2023-01-25T00:24:45.045Z,101723.13
2023-01-25T00:27:12.617Z,101715.13
2023-01-25T00:30:17.872Z,101712.69
2023-01-25T00:32:55.055Z,101717.78
2023-01-25T00:35:41.055Z,101717.16
2023-01-25T00:39:03.691Z,101709.63
2023-01-25T00:41:37.561Z,101709.13
2023-01-25T00:44:05.510Z,101700.75
2023-01-25T00:46:34.576Z,101702.50
2023-01-25T00:49:02.183Z,101687.91
2023-01-25T00:51:29.848Z,101688.28
2023-01-25T00:53:57.539Z,101689.28
2023-01-25T00:56:25.303Z,101687.75
2023-01-25T00:58:52.876Z,101682.16
2023-01-25T01:01:20.767Z,101679.75
2023-01-25T01:03:49.723Z,101678.84
2023-01-25T01:06:53.796Z,101675.28
2023-01-25T01:09:57.835Z,101677.94
2023-01-25T01:12:44.100Z,101676.84
2023-01-25T01:16:07.287Z,101677.94
2023-01-25T01:19:49.758Z,101674.00
2023-01-25T01:22:36.968Z,101678.84
2023-01-25T01:25:05.015Z,101675.28
2023-01-25T01:27:32.617Z,101673.53
2023-01-25T01:30:00.219Z,101682.66
2023-01-25T01:32:28.067Z,101685.47
2023-01-25T01:34:55.760Z,101687.25
2023-01-25T01:37:23.651Z,101679.50
2023-01-25T01:39:52.878Z,101686.22
2023-01-25T01:42:20.599Z,101678.22
2023-01-25T01:44:50.118Z,101677.06
2023-01-25T01:47:23.536Z,101674.41
2023-01-25T01:50:00.246Z,101668.44
2023-01-25T01:52:33.763Z,101671.59
2023-01-25T01:55:08.924Z,101675.03
2023-01-25T01:57:41.896Z,101671.75
2023-01-25T02:00:14.513Z,101677.34
2023-01-25T02:02:43.404Z,101676.84
2023-01-25T02:05:17.189Z,101676.19
2023-01-25T02:07:48.085Z,101679.13
2023-01-25T02:10:18.930Z,101676.84
2023-01-25T02:12:49.011Z,101675.94
2023-01-25T02:15:16.677Z,101672.34
2023-01-25T02:17:44.493Z,101668.66
2023-01-25T02:20:25.112Z,101671.97
2023-01-25T02:23:00.250Z,101670.19
2023-01-25T02:25:30.222Z,101674.03
2023-01-25T02:28:03.112Z,101667.41
2023-01-25T02:30:31.905Z,101668.16
2023-01-25T02:32:59.445Z,101655.81
2023-01-25T02:35:38.804Z,101660.28
2023-01-25T02:38:07.853Z,101655.94
2023-01-25T02:40:44.034Z,101654.16
2023-01-25T02:43:12.307Z,101648.84
2023-01-25T02:45:40.103Z,101653.16
2023-01-25T02:48:07.904Z,101649.59
2023-01-25T02:50:35.524Z,101637.91
2023-01-25T02:53:03.084Z,101642.09
2023-01-25T02:55:30.726Z,101634.47
2023-01-25T02:57:59.830Z,101639.41
2023-01-25T03:00:27.963Z,101629.50
2023-01-25T03:02:55.579Z,101639.94
2023-01-25T03:05:24.918Z,101639.16
2023-01-25T03:07:53.089Z,101631.94
2023-01-25T03:10:20.705Z,101632.56
2023-01-25T03:12:49.064Z,101631.53
2023-01-25T03:15:18.281Z,101627.72
2023-01-25T03:17:45.945Z,101628.50
2023-01-25T03:20:13.947Z,101637.91
2023-01-25T03:22:42.084Z,101629.50
2023-01-25T03:25:10.989Z,101630.50
2023-01-25T03:27:43.391Z,101629.50
2023-01-25T03:30:12.763Z,101625.69
2023-01-25T03:32:41.963Z,101623.41
2023-01-25T03:35:14.032Z,101621.38
2023-01-25T03:37:41.587Z,101625.47
2023-01-25T03:40:10.777Z,101620.38
2023-01-25T03:42:41.451Z,101622.91
2023-01-25T03:45:10.164Z,101621.75
2023-01-25T03:47:38.229Z,101617.28
2023-01-25T03:50:08.718Z,101613.47
2023-01-25T03:52:40.609Z,101617.06
2023-01-25T03:55:09.833Z,101618.56
2023-01-25T03:57:41.754Z,101617.06
2023-01-25T04:00:12.743Z,101618.56
2023-01-25T04:02:43.180Z,101618.34
2023-01-25T04:05:16.031Z,101624.44
2023-01-25T04:07:43.656Z,101624.44
2023-01-25T04:10:12.106Z,101623.44
2023-01-25T04:12:43.830Z,101619.34
2023-01-25T04:15:11.962Z,101621.91
2023-01-25T04:17:40.515Z,101625.09
2023-01-25T04:20:24.982Z,101623.16
2023-01-25T04:22:53.660Z,101621.09
2023-01-25T04:25:26.339Z,101617.44
2023-01-25T04:27:54.744Z,101611.22
2023-01-25T04:30:22.397Z,101610.19
2023-01-25T04:32:51.599Z,101603.69
2023-01-25T04:35:27.933Z,101603.31
2023-01-25T04:37:56.527Z,101606.38
2023-01-25T04:40:27.197Z,101599.25
2023-01-25T04:42:54.855Z,101603.59
2023-01-25T04:45:22.844Z,101602.31
2023-01-25T04:47:50.903Z,101604.59
2023-01-25T04:50:18.748Z,101599.00
2023-01-25T04:52:48.421Z,101598.13
2023-01-25T04:55:16.300Z,101596.75
2023-01-25T04:57:45.371Z,101600.28
2023-01-25T05:00:13.827Z,101593.44
2023-01-25T05:02:41.583Z,101594.09
2023-01-25T05:05:10.551Z,101603.59
2023-01-25T05:07:38.677Z,101605.13
2023-01-25T05:10:09.894Z,101598.00
2023-01-25T05:12:42.120Z,101591.91
2023-01-25T05:15:10.650Z,101599.03
2023-01-25T05:17:38.535Z,101593.94
2023-01-25T05:20:07.388Z,101593.72
2023-01-25T05:22:34.979Z,101598.53
2023-01-25T05:25:03.661Z,101596.50
2023-01-25T05:27:31.683Z,101600.56
2023-01-25T05:30:19.306Z,101596.25
2023-01-25T05:32:58.199Z,101592.81
2023-01-25T05:35:26.220Z,101601.19
2023-01-25T05:37:57.804Z,101599.28
2023-01-25T05:40:26.767Z,101601.06
2023-01-25T05:43:00.664Z,101594.97
2023-01-25T05:45:30.810Z,101598.25
2023-01-25T05:48:00.399Z,101602.06
2023-01-25T05:50:28.314Z,101605.38
2023-01-25T05:53:06.043Z,101604.28
2023-01-25T05:55:36.700Z,101613.28
2023-01-25T05:58:09.887Z,101593.22
2023-01-25T06:00:39.611Z,101605.00
2023-01-25T06:03:07.496Z,101586.84
2023-01-25T06:05:37.615Z,101587.09
2023-01-25T06:08:05.587Z,101589.91
2023-01-25T06:10:42.952Z,101580.25
2023-01-25T06:13:11.852Z,101581.00
2023-01-25T06:15:39.562Z,101575.91
2023-01-25T06:18:39.464Z,101570.84
2023-01-25T06:21:18.972Z,101562.19
2023-01-25T06:23:46.790Z,101562.44
2023-01-25T06:26:16.254Z,101556.69
2023-01-25T06:28:45.139Z,101558.34
2023-01-25T06:31:14.682Z,101551.88
2023-01-25T06:33:44.679Z,101553.03
2023-01-25T06:36:13.954Z,101551.00
2023-01-25T06:38:42.261Z,101544.53
2023-01-25T06:41:12.669Z,101548.56
2023-01-25T06:43:40.617Z,101548.22
2023-01-25T06:46:11.930Z,101549.16
2023-01-25T06:48:40.042Z,101545.75
2023-01-25T06:51:09.127Z,101547.16
2023-01-25T06:53:38.304Z,101554.41
2023-01-25T06:56:10.765Z,101552.63
2023-01-25T06:58:39.411Z,101553.53
2023-01-25T07:01:12.985Z,101556.84
2023-01-25T07:03:40.944Z,101551.00
2023-01-25T07:06:10.549Z,101556.09
2023-01-25T07:08:39.591Z,101547.56
2023-01-25T07:11:09.507Z,101561.78
2023-01-25T07:13:37.068Z,101554.31
2023-01-25T07:16:07.167Z,101553.53
2023-01-25T07:18:37.387Z,101552.53
2023-01-25T07:21:06.516Z,101545.91
2023-01-25T07:23:37.783Z,101543.59
2023-01-25T07:26:06.705Z,101546.78
2023-01-25T07:28:34.632Z,101551.75
2023-01-25T07:31:06.988Z,101559.09
2023-01-25T07:33:36.373Z,101548.13
2023-01-25T07:36:05.821Z,101554.75
2023-01-25T07:38:36.015Z,101554.75
2023-01-25T07:41:04.638Z,101547.53
2023-01-25T07:43:32.925Z,101552.25
2023-01-25T07:46:04.519Z,101542.84
2023-01-25T07:48:33.182Z,101540.03
2023-01-25T07:51:12.381Z,101540.81
2023-01-25T07:53:40.692Z,101543.84
2023-01-25T07:56:08.719Z,101549.19
2023-01-25T07:58:36.579Z,101557.56
2023-01-25T08:01:07.849Z,101557.81
2023-01-25T08:03:36.557Z,101555.94
2023-01-25T08:06:06.454Z,101554.28
2023-01-25T08:08:35.547Z,101545.63
2023-01-25T08:11:09.651Z,101550.31
2023-01-25T08:13:37.182Z,101551.94
2023-01-25T08:16:05.174Z,101547.09
2023-01-25T08:18:35.765Z,101541.25
2023-01-25T08:21:05.332Z,101546.84
2023-01-25T08:23:33.060Z,101547.81
2023-01-25T08:26:02.867Z,101549.38
2023-01-25T08:28:30.439Z,101549.34
2023-01-25T08:31:06.089Z,101550.22
2023-01-25T08:33:34.025Z,101538.16
2023-01-25T08:36:01.824Z,101535.88
2023-01-25T08:38:30.807Z,101536.34
2023-01-25T08:41:05.876Z,101536.59
2023-01-25T08:43:33.853Z,101536.34
2023-01-25T08:46:01.582Z,101528.19
2023-01-25T08:48:29.148Z,101527.31
2023-01-25T08:50:56.778Z,101524.66
2023-01-25T08:53:24.425Z,101522.63
2023-01-25T08:55:53.469Z,101513.72
2023-01-25T08:58:22.209Z,101521.09
2023-01-25T09:00:50.366Z,101518.50
2023-01-25T09:03:18.435Z,101515.16
2023-01-25T09:05:46.057Z,101513.31
2023-01-25T09:08:13.550Z,101516.31
2023-01-25T09:10:41.055Z,101511.91
2023-01-25T09:13:09.972Z,101512.47
2023-01-25T09:15:37.533Z,101516.06
2023-01-25T09:18:05.595Z,101514.91
2023-01-25T09:20:34.549Z,101520.69
2023-01-25T09:23:02.364Z,101509.19
2023-01-25T09:25:29.994Z,101516.31
2023-01-25T09:27:57.795Z,101512.44
2023-01-25T09:30:40.803Z,101509.53
2023-01-25T09:33:17.487Z,101507.53
2023-01-25T09:35:49.076Z,101507.75
2023-01-25T09:38:16.694Z,101503.69
2023-01-25T09:40:54.452Z,101516.53
2023-01-25T09:43:33.640Z,101507.13
2023-01-25T09:46:15.763Z,101505.41
2023-01-25T09:49:06.769Z,101507.81
2023-01-25T09:51:51.306Z,101505.50
2023-01-25T09:54:21.110Z,101499.84
2023-01-25T09:56:51.692Z,101504.03
2023-01-25T09:59:26.171Z,101501.16
2023-01-25T10:01:58.636Z,101501.47
2023-01-25T10:04:29.784Z,101500.72
2023-01-25T10:07:01.848Z,101501.41
2023-01-25T10:09:38.521Z,101498.75
2023-01-25T10:12:13.239Z,101501.19
2023-01-25T10:14:41.088Z,101504.84
2023-01-25T10:17:17.938Z,101499.00
2023-01-25T10:19:58.486Z,101492.38
2023-01-25T10:22:29.962Z,101490.59
2023-01-25T10:25:25.233Z,101493.06
2023-01-25T10:28:03.820Z,101481.75
2023-01-25T10:30:35.448Z,101481.34
2023-01-25T10:33:12.915Z,101480.56
2023-01-25T10:35:47.053Z,101476.69
2023-01-25T10:38:20.922Z,101476.69
2023-01-25T10:40:54.196Z,101472.63
2023-01-25T10:43:22.456Z,101473.63
2023-01-25T10:45:50.803Z,101465.22
2023-01-25T10:48:22.212Z,101465.22
2023-01-25T10:50:53.071Z,101463.69
2023-01-25T10:53:33.475Z,101462.72
2023-01-25T10:56:20.280Z,101458.13
2023-01-25T10:58:49.429Z,101454.34
2023-01-25T11:01:27.755Z,101455.22
2023-01-25T11:03:57.476Z,101449.00
2023-01-25T11:06:36.517Z,101451.13
2023-01-25T11:09:47.666Z,101452.44
2023-01-25T11:12:20.706Z,101441.91
2023-01-25T11:14:50.732Z,101441.69
2023-01-25T11:17:27.403Z,101440.13
2023-01-25T11:20:17.959Z,101430.28
2023-01-25T11:22:54.249Z,101416.69
2023-01-25T11:25:31.382Z,101419.75
2023-01-25T11:28:18.130Z,101413.34
2023-01-25T11:30:46.355Z,101403.16
2023-01-25T11:33:15.341Z,101409.59
2023-01-25T11:35:58.305Z,101405.38
2023-01-25T11:38:26.478Z,101397.00
2023-01-25T11:41:02.989Z,101387.81
2023-01-25T11:43:51.931Z,101384.47
2023-01-25T11:46:35.356Z,101382.47
2023-01-25T11:49:13.044Z,101377.94
2023-01-25T11:51:51.511Z,101378.69
2023-01-25T11:54:39.923Z,101372.84
2023-01-25T11:57:21.151Z,101357.75
2023-01-25T12:00:05.374Z,101360.22
2023-01-25T12:03:02.289Z,101351.25
2023-01-25T12:05:44.428Z,101344.03
2023-01-25T12:08:32.849Z,101339.59
2023-01-25T12:11:10.440Z,101329.75
2023-01-25T12:13:55.505Z,101324.13
2023-01-25T12:16:33.704Z,101318.16
2023-01-25T12:19:14.266Z,101319.25
2023-01-25T12:21:57.724Z,101309.91
2023-01-25T12:24:33.350Z,101315.22
2023-01-25T12:27:14.806Z,101303.72
2023-01-25T12:29:47.858Z,101299.97
2023-01-25T12:32:25.085Z,101294.44
2023-01-25T12:35:03.489Z,101285.59
2023-01-25T12:37:36.304Z,101280.41
2023-01-25T12:40:11.142Z,101274.09
2023-01-25T12:42:45.289Z,101272.75
2023-01-25T12:45:18.089Z,101278.03
2023-01-25T12:47:50.930Z,101266.53
2023-01-25T12:50:23.696Z,101265.84
2023-01-25T12:52:54.947Z,101267.63
2023-01-25T12:55:22.840Z,101261.00
2023-01-25T12:57:57.955Z,101260.78
2023-01-25T13:00:37.275Z,101249.16
2023-01-25T13:03:18.918Z,101255.91
2023-01-25T13:05:52.812Z,101242.59
2023-01-25T13:08:32.026Z,101242.59
2023-01-25T13:11:10.815Z,101231.69
2023-01-25T13:13:38.484Z,101225.81
2023-01-25T13:16:35.489Z,101227.34
2023-01-25T13:19:04.754Z,101221.59
2023-01-25T13:21:46.551Z,101218.91
2023-01-25T13:24:19.951Z,101211.41
2023-01-25T13:26:50.403Z,101213.19
2023-01-25T13:29:49.307Z,101211.19
2023-01-25T13:32:59.576Z,101210.28
2023-01-25T13:35:43.095Z,101203.56
2023-01-25T13:38:37.980Z,101202.44
2023-01-25T13:41:12.813Z,101193.38
2023-01-25T13:43:43.259Z,101182.53
2023-01-25T13:46:14.311Z,101183.44
2023-01-25T13:48:54.945Z,101187.88
2023-01-25T13:51:23.988Z,101188.91
2023-01-25T13:53:59.461Z,101182.38
2023-01-25T13:56:30.264Z,101186.84
2023-01-25T13:58:57.895Z,101189.28
2023-01-25T14:01:26.985Z,101188.41
2023-01-25T14:03:59.722Z,101189.94
2023-01-25T14:06:30.666Z,101193.25
2023-01-25T14:09:01.108Z,101185.38
2023-01-25T14:11:31.061Z,101185.28
2023-01-25T14:14:01.864Z,101178.66
2023-01-25T14:16:30.903Z,101184.19
2023-01-25T14:19:20.528Z,101172.91
2023-01-25T14:21:49.448Z,101179.50
2023-01-25T14:24:19.085Z,101180.63
2023-01-25T14:26:47.408Z,101178.88
2023-01-25T14:29:35.942Z,101170.00
2023-01-25T14:32:04.471Z,101159.94
2023-01-25T14:34:32.100Z,101157.59
2023-01-25T14:37:08.281Z,101153.41
2023-01-25T14:39:36.272Z,101154.84
2023-01-25T14:42:04.225Z,101142.00
2023-01-25T14:44:33.753Z,101142.34
2023-01-25T14:47:29.423Z,101134.84
2023-01-25T14:49:57.161Z,101142.81
2023-01-25T14:52:28.230Z,101138.38
2023-01-25T14:54:58.437Z,101136.81
2023-01-25T14:57:34.230Z,101132.28
2023-01-25T15:00:04.901Z,101130.41
2023-01-25T15:02:39.106Z,101132.84
2023-01-25T15:05:17.246Z,101119.09
2023-01-25T15:07:48.029Z,101116.00
2023-01-25T15:10:19.302Z,101111.16
2023-01-25T15:13:12.979Z,101097.41
2023-01-25T15:15:52.364Z,101089.03
2023-01-25T15:18:42.569Z,101099.88
2023-01-25T15:21:11.734Z,101104.50
2023-01-25T15:23:41.610Z,101103.84
2023-01-25T15:26:15.756Z,101099.09
2023-01-25T15:28:43.331Z,101102.31
2023-01-25T15:31:17.430Z,101085.28
2023-01-25T15:33:45.237Z,101091.47
2023-01-25T15:36:14.356Z,101096.34
2023-01-25T15:38:43.489Z,101086.16
2023-01-25T15:41:12.234Z,101087.03
2023-01-25T15:43:39.845Z,101085.03
2023-01-25T15:46:12.503Z,101081.50
2023-01-25T15:48:43.927Z,101078.41
2023-01-25T15:51:12.795Z,101080.59
2023-01-25T15:53:40.982Z,101072.78
2023-01-25T15:56:15.429Z,101055.94
2023-01-25T15:58:46.716Z,101054.63
2023-01-25T16:01:14.503Z,101048.13
2023-01-25T16:03:42.275Z,101050.53
2023-01-25T16:06:26.533Z,101051.53
2023-01-25T16:08:54.232Z,101044.34
2023-01-25T16:11:23.180Z,101040.50
2023-01-25T16:13:51.200Z,101038.94
2023-01-25T16:16:21.783Z,101042.81
2023-01-25T16:18:49.641Z,101042.81
2023-01-25T16:21:17.354Z,101050.31
2023-01-25T16:23:45.117Z,101041.91
2023-01-25T16:26:19.877Z,101040.16
2023-01-25T16:28:48.818Z,101040.81
2023-01-25T16:31:31.417Z,101037.28
2023-01-25T16:34:00.715Z,101039.25
2023-01-25T16:36:28.988Z,101031.25
2023-01-25T16:38:56.724Z,101028.44
2023-01-25T16:41:24.542Z,101034.16
2023-01-25T16:43:53.479Z,101033.19
2023-01-25T16:46:22.962Z,101040.56
2023-01-25T16:48:53.121Z,101034.97
2023-01-25T16:51:22.562Z,101031.31
2023-01-25T16:53:51.634Z,101037.16
2023-01-25T16:56:20.687Z,101032.28
2023-01-25T16:58:49.305Z,101031.31
2023-01-25T17:01:20.056Z,101029.31
2023-01-25T17:03:49.267Z,101022.44
2023-01-25T17:06:20.029Z,101018.16
2023-01-25T17:08:48.076Z,101020.69
2023-01-25T17:11:18.577Z,101017.13
2023-01-25T17:13:49.616Z,101021.34
2023-01-25T17:16:19.090Z,101018.69
2023-01-25T17:18:47.248Z,101024.88
2023-01-25T17:21:16.714Z,101026.22
2023-01-25T17:23:44.761Z,101022.22
2023-01-25T17:26:14.834Z,101017.13
2023-01-25T17:28:43.237Z,101015.59
2023-01-25T17:31:15.421Z,101005.31
2023-01-25T17:33:44.386Z,100999.22
2023-01-25T17:36:15.824Z,101006.31
2023-01-25T17:38:43.722Z,100998.34
2023-01-25T17:41:13.397Z,100991.28
2023-01-25T17:43:41.068Z,100992.84
2023-01-25T17:46:13.165Z,100993.03
2023-01-25T17:48:41.097Z,101002.22
2023-01-25T17:51:10.145Z,100994.59
2023-01-25T17:53:37.676Z,101002.66
2023-01-25T17:56:07.110Z,100993.25
2023-01-25T17:58:36.677Z,100988.53
2023-01-25T18:01:13.973Z,100985.75
2023-01-25T18:03:42.436Z,100976.56
2023-01-25T18:06:13.808Z,100981.09
2023-01-25T18:08:43.447Z,100982.00
2023-01-25T18:11:12.877Z,100971.38
2023-01-25T18:13:40.903Z,100965.19
2023-01-25T18:16:09.762Z,100960.75
2023-01-25T18:18:38.193Z,100965.84
2023-01-25T18:21:08.982Z,100949.72
2023-01-25T18:23:39.703Z,100952.16
2023-01-25T18:26:09.100Z,100960.56
2023-01-25T18:28:36.858Z,100956.13
2023-01-25T18:31:07.038Z,100951.03
2023-01-25T18:33:34.625Z,100952.81
2023-01-25T18:36:03.752Z,100954.34
2023-01-25T18:38:32.685Z,100949.72
2023-01-25T18:41:01.676Z,100943.75
2023-01-25T18:43:29.225Z,100941.19
2023-01-25T18:45:58.226Z,100944.19
2023-01-25T18:48:31.111Z,100936.47
2023-01-25T18:50:59.795Z,100931.38
2023-01-25T18:53:28.208Z,100934.47
2023-01-25T18:56:01.988Z,100933.69
2023-01-25T18:58:31.148Z,100930.16
2023-01-25T19:01:03.582Z,100925.84
2023-01-25T19:03:31.169Z,100927.41
2023-01-25T19:05:58.850Z,100922.31
2023-01-25T19:08:27.122Z,100927.19
2023-01-25T19:11:01.584Z,100927.41
2023-01-25T19:13:32.021Z,100923.41
2023-01-25T19:16:02.112Z,100919.22
2023-01-25T19:18:31.756Z,100914.13
2023-01-25T19:20:59.780Z,100913.22
2023-01-25T19:23:32.735Z,100912.31
2023-01-25T19:26:01.780Z,100909.44
2023-01-25T19:28:29.768Z,100908.75
2023-01-25T19:30:57.866Z,100908.75
2023-01-25T19:33:25.483Z,100907.47
2023-01-25T19:35:59.666Z,100906.34
2023-01-25T19:38:27.662Z,100906.56
2023-01-25T19:40:55.188Z,100908.25
2023-01-25T19:43:24.230Z,100904.63
2023-01-25T19:45:51.916Z,100903.41
2023-01-25T19:48:19.504Z,100900.41
2023-01-25T19:50:47.044Z,100901.44
2023-01-25T19:53:14.596Z,100898.03
2023-01-25T19:55:43.106Z,100889.63
2023-01-25T19:58:11.988Z,100892.94
2023-01-25T20:00:40.918Z,100892.72
2023-01-25T20:03:16.256Z,100884.97
2023-01-25T20:05:44.474Z,100873.16
2023-01-25T20:08:12.043Z,100872.38
2023-01-25T20:10:39.608Z,100878.78
2023-01-25T20:13:07.137Z,100878.56
2023-01-25T20:15:34.930Z,100874.16
2023-01-25T20:18:03.846Z,100887.19
2023-01-25T20:20:31.361Z,100878.78
2023-01-25T20:22:58.938Z,100873.47
2023-01-25T20:25:26.551Z,100878.00
2023-01-25T20:27:54.173Z,100860.03
2023-01-25T20:30:21.919Z,100860.13
2023-01-25T20:32:49.592Z,100863.66
2023-01-25T20:35:18.537Z,100855.59
2023-01-25T20:37:48.043Z,100853.06
2023-01-25T20:40:17.439Z,100846.69
2023-01-25T20:42:45.004Z,100848.16
2023-01-25T20:45:16.868Z,100834.31
2023-01-25T20:47:44.483Z,100832.78
2023-01-25T20:50:12.425Z,100834.78
2023-01-25T20:52:41.315Z,100829.94
2023-01-25T20:55:10.286Z,100827.97
2023-01-25T20:57:38.284Z,100827.97
2023-01-25T21:00:09.331Z,100830.28
2023-01-25T21:02:38.827Z,100819.38
2023-01-25T21:05:06.901Z,100818.56
2023-01-25T21:07:34.430Z,100812.94
2023-01-25T21:10:03.306Z,100811.16
2023-01-25T21:12:31.298Z,100809.94
2023-01-25T21:14:58.881Z,100807.06
2023-01-25T21:17:26.448Z,100803.47
2023-01-25T21:19:54.042Z,100808.31
2023-01-25T21:22:21.640Z,100806.31
2023-01-25T21:24:49.251Z,100805.00
2023-01-25T21:27:18.221Z,100799.28
2023-01-25T21:29:45.800Z,100803.69
2023-01-25T21:32:13.364Z,100806.13
2023-01-25T21:34:40.938Z,100803.34
2023-01-25T21:37:08.507Z,100797.94
2023-01-25T21:39:36.157Z,100797.59
2023-01-25T21:42:03.857Z,100800.00
2023-01-25T21:44:50.089Z,100802.22
2023-01-25T21:47:29.866Z,100800.56
2023-01-25T21:50:15.806Z,100793.38
2023-01-25T21:52:43.366Z,100785.53
2023-01-25T21:55:11.060Z,100779.59
2023-01-25T21:57:45.531Z,100781.81
2023-01-25T22:00:16.862Z,100782.91
2023-01-25T22:02:44.609Z,100786.22
2023-01-25T22:05:12.184Z,100775.41
2023-01-25T22:07:39.823Z,100771.41
2023-01-25T22:10:07.981Z,100772.75
2023-01-25T22:12:35.660Z,100774.06
2023-01-25T22:15:03.278Z,100775.84
2023-01-25T22:17:33.355Z,100778.38
2023-01-25T22:20:00.972Z,100770.56
2023-01-25T22:22:28.461Z,100782.25
2023-01-25T22:24:56.740Z,100779.59
2023-01-25T22:27:32.857Z,100780.81
2023-01-25T22:30:00.569Z,100778.97
2023-01-25T22:32:28.064Z,100788.00
2023-01-25T22:34:56.972Z,100782.84
2023-01-25T22:37:24.633Z,100783.81
2023-01-25T22:39:54.149Z,100786.69
2023-01-25T22:42:21.735Z,100785.59
2023-01-25T22:44:49.335Z,100781.19
2023-01-25T22:47:16.965Z,100779.41
2023-01-25T22:49:44.510Z,100777.88
2023-01-25T22:52:13.419Z,100777.63
2023-01-25T22:54:40.999Z,100774.00
2023-01-25T22:57:08.682Z,100773.00
2023-01-25T22:59:36.253Z,100770.13
2023-01-25T23:02:04.011Z,100767.59
2023-01-25T23:04:31.594Z,100762.63
2023-01-25T23:07:12.646Z,100755.69
2023-01-25T23:09:42.106Z,100755.59
2023-01-25T23:12:09.797Z,100746.06
2023-01-25T23:14:52.721Z,100741.22
2023-01-25T23:17:39.056Z,100730.41
2023-01-25T23:20:09.811Z,100731.97
2023-01-25T23:22:37.636Z,100731.09
2023-01-25T23:25:08.872Z,100730.41
2023-01-25T23:27:36.530Z,100724.00
2023-01-25T23:30:07.130Z,100715.50
2023-01-25T23:32:34.649Z,100707.00
2023-01-25T23:35:02.235Z,100712.72
2023-01-25T23:37:29.996Z,100709.22
2023-01-25T23:39:57.608Z,100706.78
2023-01-25T23:42:26.630Z,100697.31
2023-01-25T23:44:54.214Z,100691.34
2023-01-25T23:47:21.795Z,100694.88
2023-01-25T23:49:49.316Z,100679.88
2023-01-25T23:52:16.877Z,100677.19
2023-01-25T23:54:44.491Z,100674.56
2023-01-25T23:57:12.127Z,100660.88
2023-01-25T23:59:41.068Z,100654.47
